sensor_id;sensor_type;location;lat;lon;timestamp;temperature;humidity
69335;SHT31;56477;52.742;15.242;2023-07-31T00:00:37;14.70;91.04
69335;SHT31;56477;52.742;15.242;2023-07-31T00:03:23;14.63;91.76
69335;SHT31;56477;52.742;15.242;2023-07-31T00:05:49;14.56;92.03
69335;SHT31;56477;52.742;15.242;2023-07-31T00:08:14;14.47;92.11
69335;SHT31;56477;52.742;15.242;2023-07-31T00:10:41;14.49;92.14
69335;SHT31;56477;52.742;15.242;2023-07-31T00:13:06;14.53;91.90
69335;SHT31;56477;52.742;15.242;2023-07-31T00:15:32;14.53;92.07
69335;SHT31;56477;52.742;15.242;2023-07-31T00:17:58;14.53;91.91
69335;SHT31;56477;52.742;15.242;2023-07-31T00:20:24;14.53;91.74
69335;SHT31;56477;52.742;15.242;2023-07-31T00:22:50;14.55;91.74
69335;SHT31;56477;52.742;15.242;2023-07-31T00:25:16;14.53;91.68
69335;SHT31;56477;52.742;15.242;2023-07-31T00:27:42;14.55;91.52
69335;SHT31;56477;52.742;15.242;2023-07-31T00:30:10;14.52;91.63
69335;SHT31;56477;52.742;15.242;2023-07-31T00:32:36;14.50;91.89
69335;SHT31;56477;52.742;15.242;2023-07-31T00:35:02;14.46;92.01
69335;SHT31;56477;52.742;15.242;2023-07-31T00:37:28;14.50;91.87
69335;SHT31;56477;52.742;15.242;2023-07-31T00:39:54;14.47;91.90
69335;SHT31;56477;52.742;15.242;2023-07-31T00:42:20;14.47;91.94
69335;SHT31;56477;52.742;15.242;2023-07-31T00:44:46;14.47;91.68
69335;SHT31;56477;52.742;15.242;2023-07-31T00:47:11;14.49;91.51
69335;SHT31;56477;52.742;15.242;2023-07-31T00:49:37;14.46;91.49
69335;SHT31;56477;52.742;15.242;2023-07-31T00:52:03;14.50;91.38
69335;SHT31;56477;52.742;15.242;2023-07-31T00:54:30;14.50;91.18
69335;SHT31;56477;52.742;15.242;2023-07-31T00:56:56;14.53;91.01
69335;SHT31;56477;52.742;15.242;2023-07-31T00:59:22;14.56;90.81
69335;SHT31;56477;52.742;15.242;2023-07-31T01:01:48;14.55;90.82
69335;SHT31;56477;52.742;15.242;2023-07-31T01:04:14;14.56;90.67
69335;SHT31;56477;52.742;15.242;2023-07-31T01:06:44;14.62;90.54
69335;SHT31;56477;52.742;15.242;2023-07-31T01:11:53;14.59;90.68
69335;SHT31;56477;52.742;15.242;2023-07-31T01:14:21;14.59;90.87
69335;SHT31;56477;52.742;15.242;2023-07-31T01:16:47;14.57;90.95
69335;SHT31;56477;52.742;15.242;2023-07-31T01:19:14;14.57;91.29
69335;SHT31;56477;52.742;15.242;2023-07-31T01:27:18;14.42;92.01
69335;SHT31;56477;52.742;15.242;2023-07-31T01:30:03;14.40;92.06
69335;SHT31;56477;52.742;15.242;2023-07-31T01:32:38;14.35;92.22
69335;SHT31;56477;52.742;15.242;2023-07-31T01:35:06;14.35;92.26
69335;SHT31;56477;52.742;15.242;2023-07-31T01:37:32;14.33;92.26
69335;SHT31;56477;52.742;15.242;2023-07-31T01:39:58;14.35;92.38
69335;SHT31;56477;52.742;15.242;2023-07-31T01:42:24;14.38;92.28
69335;SHT31;56477;52.742;15.242;2023-07-31T01:44:50;14.36;92.30
69335;SHT31;56477;52.742;15.242;2023-07-31T01:47:16;14.38;92.55
69335;SHT31;56477;52.742;15.242;2023-07-31T01:49:42;14.33;92.47
69335;SHT31;56477;52.742;15.242;2023-07-31T01:52:08;14.38;92.47
69335;SHT31;56477;52.742;15.242;2023-07-31T01:54:34;14.45;92.33
69335;SHT31;56477;52.742;15.242;2023-07-31T01:56:59;14.45;92.04
69335;SHT31;56477;52.742;15.242;2023-07-31T01:59:25;14.43;91.98
69335;SHT31;56477;52.742;15.242;2023-07-31T02:01:51;14.45;91.97
69335;SHT31;56477;52.742;15.242;2023-07-31T02:04:17;14.40;92.01
69335;SHT31;56477;52.742;15.242;2023-07-31T02:06:43;14.42;91.87
69335;SHT31;56477;52.742;15.242;2023-07-31T02:09:09;14.45;91.66
69335;SHT31;56477;52.742;15.242;2023-07-31T02:11:35;14.46;91.61
69335;SHT31;56477;52.742;15.242;2023-07-31T02:14:01;14.46;91.00
69335;SHT31;56477;52.742;15.242;2023-07-31T02:16:26;14.49;91.22
69335;SHT31;56477;52.742;15.242;2023-07-31T02:18:52;14.50;91.17
69335;SHT31;56477;52.742;15.242;2023-07-31T02:21:18;14.50;91.16
69335;SHT31;56477;52.742;15.242;2023-07-31T02:23:44;14.49;91.63
69335;SHT31;56477;52.742;15.242;2023-07-31T02:26:10;14.42;92.00
69335;SHT31;56477;52.742;15.242;2023-07-31T02:28:36;14.38;92.25
69335;SHT31;56477;52.742;15.242;2023-07-31T02:31:02;14.29;92.85
69335;SHT31;56477;52.742;15.242;2023-07-31T02:33:28;14.25;92.84
69335;SHT31;56477;52.742;15.242;2023-07-31T02:35:54;14.19;93.10
69335;SHT31;56477;52.742;15.242;2023-07-31T02:38:20;14.18;93.24
69335;SHT31;56477;52.742;15.242;2023-07-31T02:40:46;14.17;93.15
69335;SHT31;56477;52.742;15.242;2023-07-31T02:43:12;14.17;93.14
69335;SHT31;56477;52.742;15.242;2023-07-31T02:45:38;14.17;93.26
69335;SHT31;56477;52.742;15.242;2023-07-31T02:48:04;14.14;93.36
69335;SHT31;56477;52.742;15.242;2023-07-31T02:50:30;14.12;93.32
69335;SHT31;56477;52.742;15.242;2023-07-31T02:52:56;14.18;93.21
69335;SHT31;56477;52.742;15.242;2023-07-31T02:55:22;14.21;93.20
69335;SHT31;56477;52.742;15.242;2023-07-31T02:57:48;14.18;93.33
69335;SHT31;56477;52.742;15.242;2023-07-31T03:00:13;14.19;93.28
69335;SHT31;56477;52.742;15.242;2023-07-31T03:02:39;14.21;93.09
69335;SHT31;56477;52.742;15.242;2023-07-31T03:05:05;14.28;92.52
69335;SHT31;56477;52.742;15.242;2023-07-31T03:07:31;14.35;92.15
69335;SHT31;56477;52.742;15.242;2023-07-31T03:09:57;14.42;91.96
69335;SHT31;56477;52.742;15.242;2023-07-31T03:12:23;14.43;91.96
69335;SHT31;56477;52.742;15.242;2023-07-31T03:14:49;14.45;91.59
69335;SHT31;56477;52.742;15.242;2023-07-31T03:17:15;14.50;91.46
69335;SHT31;56477;52.742;15.242;2023-07-31T03:19:41;14.52;91.38
69335;SHT31;56477;52.742;15.242;2023-07-31T03:22:07;14.59;91.36
69335;SHT31;56477;52.742;15.242;2023-07-31T03:24:32;14.56;91.09
69335;SHT31;56477;52.742;15.242;2023-07-31T03:26:58;14.56;91.07
69335;SHT31;56477;52.742;15.242;2023-07-31T03:29:24;14.59;91.00
69335;SHT31;56477;52.742;15.242;2023-07-31T03:31:50;14.62;90.50
69335;SHT31;56477;52.742;15.242;2023-07-31T03:34:16;14.65;90.42
69335;SHT31;56477;52.742;15.242;2023-07-31T03:36:42;14.67;90.08
69335;SHT31;56477;52.742;15.242;2023-07-31T03:39:08;14.72;90.33
69335;SHT31;56477;52.742;15.242;2023-07-31T03:41:34;14.65;90.48
69335;SHT31;56477;52.742;15.242;2023-07-31T03:44:00;14.66;90.23
69335;SHT31;56477;52.742;15.242;2023-07-31T03:46:26;14.67;89.93
69335;SHT31;56477;52.742;15.242;2023-07-31T03:48:52;14.73;89.56
69335;SHT31;56477;52.742;15.242;2023-07-31T03:51:18;14.77;89.18
69335;SHT31;56477;52.742;15.242;2023-07-31T03:53:44;14.87;89.13
69335;SHT31;56477;52.742;15.242;2023-07-31T03:56:10;14.93;88.90
69335;SHT31;56477;52.742;15.242;2023-07-31T03:58:36;15.01;89.05
69335;SHT31;56477;52.742;15.242;2023-07-31T04:01:03;15.05;88.81
69335;SHT31;56477;52.742;15.242;2023-07-31T04:03:29;15.10;88.97
69335;SHT31;56477;52.742;15.242;2023-07-31T04:05:56;15.11;89.02
69335;SHT31;56477;52.742;15.242;2023-07-31T04:08:22;15.10;89.23
69335;SHT31;56477;52.742;15.242;2023-07-31T04:10:48;15.08;89.46
69335;SHT31;56477;52.742;15.242;2023-07-31T04:13:14;15.10;89.48
69335;SHT31;56477;52.742;15.242;2023-07-31T04:15:41;15.04;89.54
69335;SHT31;56477;52.742;15.242;2023-07-31T04:18:07;15.05;89.64
69335;SHT31;56477;52.742;15.242;2023-07-31T04:20:33;15.08;89.50
69335;SHT31;56477;52.742;15.242;2023-07-31T04:22:58;15.05;89.55
69335;SHT31;56477;52.742;15.242;2023-07-31T04:25:24;14.97;89.83
69335;SHT31;56477;52.742;15.242;2023-07-31T04:27:50;14.97;89.75
69335;SHT31;56477;52.742;15.242;2023-07-31T04:30:16;14.94;89.88
69335;SHT31;56477;52.742;15.242;2023-07-31T04:32:42;14.96;89.54
69335;SHT31;56477;52.742;15.242;2023-07-31T04:35:08;14.91;89.71
69335;SHT31;56477;52.742;15.242;2023-07-31T04:37:34;14.90;90.04
69335;SHT31;56477;52.742;15.242;2023-07-31T04:40:00;14.96;90.23
69335;SHT31;56477;52.742;15.242;2023-07-31T04:42:26;14.98;90.47
69335;SHT31;56477;52.742;15.242;2023-07-31T04:44:52;15.07;90.35
69335;SHT31;56477;52.742;15.242;2023-07-31T04:47:19;15.11;90.29
69335;SHT31;56477;52.742;15.242;2023-07-31T04:49:45;15.15;90.35
69335;SHT31;56477;52.742;15.242;2023-07-31T04:52:10;15.18;90.42
69335;SHT31;56477;52.742;15.242;2023-07-31T04:54:37;15.20;90.47
69335;SHT31;56477;52.742;15.242;2023-07-31T04:57:02;15.15;90.66
69335;SHT31;56477;52.742;15.242;2023-07-31T04:59:29;15.18;90.91
69335;SHT31;56477;52.742;15.242;2023-07-31T05:01:55;15.28;90.91
69335;SHT31;56477;52.742;15.242;2023-07-31T05:04:21;15.31;90.92
69335;SHT31;56477;52.742;15.242;2023-07-31T05:06:46;15.39;90.22
69335;SHT31;56477;52.742;15.242;2023-07-31T05:09:12;15.35;90.30
69335;SHT31;56477;52.742;15.242;2023-07-31T05:11:38;15.35;90.60
69335;SHT31;56477;52.742;15.242;2023-07-31T05:14:06;15.32;91.11
69335;SHT31;56477;52.742;15.242;2023-07-31T05:16:32;15.46;90.88
69335;SHT31;56477;52.742;15.242;2023-07-31T05:18:58;15.48;90.50
69335;SHT31;56477;52.742;15.242;2023-07-31T05:21:23;15.55;90.48
69335;SHT31;56477;52.742;15.242;2023-07-31T05:23:50;15.59;90.20
69335;SHT31;56477;52.742;15.242;2023-07-31T05:26:15;15.65;90.02
69335;SHT31;56477;52.742;15.242;2023-07-31T05:28:41;15.66;90.55
69335;SHT31;56477;52.742;15.242;2023-07-31T05:31:07;15.59;90.64
69335;SHT31;56477;52.742;15.242;2023-07-31T05:33:33;15.66;90.90
69335;SHT31;56477;52.742;15.242;2023-07-31T05:35:59;15.62;90.89
69335;SHT31;56477;52.742;15.242;2023-07-31T05:38:25;15.65;91.18
69335;SHT31;56477;52.742;15.242;2023-07-31T05:40:51;15.66;91.41
69335;SHT31;56477;52.742;15.242;2023-07-31T05:43:17;15.70;91.31
69335;SHT31;56477;52.742;15.242;2023-07-31T05:45:43;15.70;91.11
69335;SHT31;56477;52.742;15.242;2023-07-31T05:48:09;15.67;91.53
69335;SHT31;56477;52.742;15.242;2023-07-31T05:50:34;15.73;91.62
69335;SHT31;56477;52.742;15.242;2023-07-31T05:53:00;15.83;91.55
69335;SHT31;56477;52.742;15.242;2023-07-31T05:55:26;15.82;91.51
69335;SHT31;56477;52.742;15.242;2023-07-31T05:57:54;15.85;91.48
69335;SHT31;56477;52.742;15.242;2023-07-31T06:00:20;15.92;91.61
69335;SHT31;56477;52.742;15.242;2023-07-31T06:02:49;15.96;91.34
69335;SHT31;56477;52.742;15.242;2023-07-31T06:05:15;16.06;91.07
69335;SHT31;56477;52.742;15.242;2023-07-31T06:07:41;16.12;91.05
69335;SHT31;56477;52.742;15.242;2023-07-31T06:10:07;16.16;91.37
69335;SHT31;56477;52.742;15.242;2023-07-31T06:12:35;16.18;91.27
69335;SHT31;56477;52.742;15.242;2023-07-31T06:15:01;16.25;90.62
69335;SHT31;56477;52.742;15.242;2023-07-31T06:17:28;16.30;90.81
69335;SHT31;56477;52.742;15.242;2023-07-31T06:19:56;16.40;90.84
69335;SHT31;56477;52.742;15.242;2023-07-31T06:22:22;16.30;90.36
69335;SHT31;56477;52.742;15.242;2023-07-31T06:24:48;16.35;90.03
69335;SHT31;56477;52.742;15.242;2023-07-31T06:27:14;16.41;90.04
69335;SHT31;56477;52.742;15.242;2023-07-31T06:29:40;16.47;89.69
69335;SHT31;56477;52.742;15.242;2023-07-31T06:32:07;16.51;90.10
69335;SHT31;56477;52.742;15.242;2023-07-31T06:34:33;16.62;88.67
69335;SHT31;56477;52.742;15.242;2023-07-31T06:36:59;16.55;89.43
69335;SHT31;56477;52.742;15.242;2023-07-31T06:39:24;16.51;89.57
69335;SHT31;56477;52.742;15.242;2023-07-31T06:41:51;16.44;89.46
69335;SHT31;56477;52.742;15.242;2023-07-31T06:44:16;16.62;89.38
69335;SHT31;56477;52.742;15.242;2023-07-31T06:46:42;16.61;88.89
69335;SHT31;56477;52.742;15.242;2023-07-31T06:49:08;16.52;88.72
69335;SHT31;56477;52.742;15.242;2023-07-31T06:51:34;16.48;89.16
69335;SHT31;56477;52.742;15.242;2023-07-31T06:54:01;16.68;88.98
69335;SHT31;56477;52.742;15.242;2023-07-31T06:56:27;16.61;89.35
69335;SHT31;56477;52.742;15.242;2023-07-31T06:58:53;16.51;89.73
69335;SHT31;56477;52.742;15.242;2023-07-31T07:01:19;16.47;89.79
69335;SHT31;56477;52.742;15.242;2023-07-31T07:03:44;16.37;90.57
69335;SHT31;56477;52.742;15.242;2023-07-31T07:06:11;16.33;91.21
69335;SHT31;56477;52.742;15.242;2023-07-31T07:08:36;16.21;90.82
69335;SHT31;56477;52.742;15.242;2023-07-31T07:11:03;16.14;91.69
69335;SHT31;56477;52.742;15.242;2023-07-31T07:13:29;16.10;92.25
69335;SHT31;56477;52.742;15.242;2023-07-31T07:15:55;16.07;92.20
69335;SHT31;56477;52.742;15.242;2023-07-31T07:18:20;16.04;92.91
69335;SHT31;56477;52.742;15.242;2023-07-31T07:20:49;16.00;92.89
69335;SHT31;56477;52.742;15.242;2023-07-31T07:23:15;16.03;93.02
69335;SHT31;56477;52.742;15.242;2023-07-31T07:25:42;15.86;92.97
69335;SHT31;56477;52.742;15.242;2023-07-31T07:28:07;15.97;93.33
69335;SHT31;56477;52.742;15.242;2023-07-31T07:30:33;16.02;92.37
69335;SHT31;56477;52.742;15.242;2023-07-31T07:32:59;15.99;92.51
69335;SHT31;56477;52.742;15.242;2023-07-31T07:35:25;15.99;92.86
69335;SHT31;56477;52.742;15.242;2023-07-31T07:37:51;15.94;92.90
69335;SHT31;56477;52.742;15.242;2023-07-31T07:40:17;16.06;92.42
69335;SHT31;56477;52.742;15.242;2023-07-31T07:42:43;16.03;92.59
69335;SHT31;56477;52.742;15.242;2023-07-31T07:45:09;15.93;93.04
69335;SHT31;56477;52.742;15.242;2023-07-31T07:47:35;15.87;93.68
69335;SHT31;56477;52.742;15.242;2023-07-31T07:50:01;15.87;93.94
69335;SHT31;56477;52.742;15.242;2023-07-31T07:52:27;15.93;93.80
69335;SHT31;56477;52.742;15.242;2023-07-31T07:54:53;15.94;93.75
69335;SHT31;56477;52.742;15.242;2023-07-31T07:57:19;15.99;93.82
69335;SHT31;56477;52.742;15.242;2023-07-31T07:59:45;16.00;93.84
69335;SHT31;56477;52.742;15.242;2023-07-31T08:02:11;16.13;93.59
69335;SHT31;56477;52.742;15.242;2023-07-31T08:04:37;16.12;93.71
69335;SHT31;56477;52.742;15.242;2023-07-31T08:07:03;16.17;93.30
69335;SHT31;56477;52.742;15.242;2023-07-31T08:09:29;16.17;93.09
69335;SHT31;56477;52.742;15.242;2023-07-31T08:11:55;16.13;93.41
69335;SHT31;56477;52.742;15.242;2023-07-31T08:14:23;16.17;93.43
69335;SHT31;56477;52.742;15.242;2023-07-31T08:16:49;16.03;93.46
69335;SHT31;56477;52.742;15.242;2023-07-31T08:19:15;16.00;93.20
69335;SHT31;56477;52.742;15.242;2023-07-31T08:21:41;16.12;93.36
69335;SHT31;56477;52.742;15.242;2023-07-31T08:24:07;16.04;93.40
69335;SHT31;56477;52.742;15.242;2023-07-31T08:26:33;16.12;94.00
69335;SHT31;56477;52.742;15.242;2023-07-31T08:28:59;16.14;93.25
69335;SHT31;56477;52.742;15.242;2023-07-31T08:31:25;16.27;93.24
69335;SHT31;56477;52.742;15.242;2023-07-31T08:33:52;16.09;93.61
69335;SHT31;56477;52.742;15.242;2023-07-31T08:36:18;16.10;94.11
69335;SHT31;56477;52.742;15.242;2023-07-31T08:38:45;16.10;93.68
69335;SHT31;56477;52.742;15.242;2023-07-31T08:41:11;16.06;93.64
69335;SHT31;56477;52.742;15.242;2023-07-31T08:43:39;16.06;93.83
69335;SHT31;56477;52.742;15.242;2023-07-31T08:46:05;15.97;93.64
69335;SHT31;56477;52.742;15.242;2023-07-31T08:48:32;15.89;93.78
69335;SHT31;56477;52.742;15.242;2023-07-31T08:50:58;15.94;94.07
69335;SHT31;56477;52.742;15.242;2023-07-31T08:53:24;15.99;93.64
69335;SHT31;56477;52.742;15.242;2023-07-31T08:55:52;16.12;93.60
69335;SHT31;56477;52.742;15.242;2023-07-31T08:58:19;16.13;93.34
69335;SHT31;56477;52.742;15.242;2023-07-31T09:00:46;16.03;93.21
69335;SHT31;56477;52.742;15.242;2023-07-31T09:03:17;16.04;93.18
69335;SHT31;56477;52.742;15.242;2023-07-31T09:05:45;16.18;93.33
69335;SHT31;56477;52.742;15.242;2023-07-31T09:08:18;16.24;92.87
69335;SHT31;56477;52.742;15.242;2023-07-31T09:10:45;16.27;92.91
69335;SHT31;56477;52.742;15.242;2023-07-31T09:13:12;16.28;92.35
69335;SHT31;56477;52.742;15.242;2023-07-31T09:15:39;16.33;92.64
69335;SHT31;56477;52.742;15.242;2023-07-31T09:18:07;16.25;92.02
69335;SHT31;56477;52.742;15.242;2023-07-31T09:20:33;16.27;92.44
69335;SHT31;56477;52.742;15.242;2023-07-31T09:23:10;16.30;91.80
69335;SHT31;56477;52.742;15.242;2023-07-31T09:25:38;16.31;92.10
69335;SHT31;56477;52.742;15.242;2023-07-31T09:28:07;16.38;91.45
69335;SHT31;56477;52.742;15.242;2023-07-31T09:30:59;16.35;92.02
69335;SHT31;56477;52.742;15.242;2023-07-31T09:33:25;16.25;91.65
69335;SHT31;56477;52.742;15.242;2023-07-31T09:35:51;16.27;92.23
69335;SHT31;56477;52.742;15.242;2023-07-31T09:38:17;16.31;92.22
69335;SHT31;56477;52.742;15.242;2023-07-31T09:40:47;16.45;92.25
69335;SHT31;56477;52.742;15.242;2023-07-31T09:43:17;16.51;91.60
69335;SHT31;56477;52.742;15.242;2023-07-31T09:45:44;16.61;91.03
69335;SHT31;56477;52.742;15.242;2023-07-31T09:48:15;16.64;90.91
69335;SHT31;56477;52.742;15.242;2023-07-31T09:50:43;16.64;91.04
69335;SHT31;56477;52.742;15.242;2023-07-31T09:53:09;16.61;91.46
69335;SHT31;56477;52.742;15.242;2023-07-31T09:55:36;16.81;91.07
69335;SHT31;56477;52.742;15.242;2023-07-31T09:58:07;16.99;90.58
69335;SHT31;56477;52.742;15.242;2023-07-31T10:00:34;17.08;90.14
69335;SHT31;56477;52.742;15.242;2023-07-31T10:03:01;17.16;89.92
69335;SHT31;56477;52.742;15.242;2023-07-31T10:05:33;17.24;90.20
69335;SHT31;56477;52.742;15.242;2023-07-31T10:08:00;17.22;89.92
69335;SHT31;56477;52.742;15.242;2023-07-31T10:10:26;17.24;89.60
69335;SHT31;56477;52.742;15.242;2023-07-31T10:12:54;17.22;90.18
69335;SHT31;56477;52.742;15.242;2023-07-31T10:15:21;17.12;89.13
69335;SHT31;56477;52.742;15.242;2023-07-31T10:17:48;17.29;89.95
69335;SHT31;56477;52.742;15.242;2023-07-31T10:20:15;17.37;89.36
69335;SHT31;56477;52.742;15.242;2023-07-31T10:22:44;17.30;88.74
69335;SHT31;56477;52.742;15.242;2023-07-31T10:25:15;17.50;89.05
69335;SHT31;56477;52.742;15.242;2023-07-31T10:27:41;17.70;88.39
69335;SHT31;56477;52.742;15.242;2023-07-31T10:30:09;17.78;87.40
69335;SHT31;56477;52.742;15.242;2023-07-31T10:32:38;17.74;87.39
69335;SHT31;56477;52.742;15.242;2023-07-31T10:35:07;17.61;87.77
69335;SHT31;56477;52.742;15.242;2023-07-31T10:37:41;17.51;88.40
69335;SHT31;56477;52.742;15.242;2023-07-31T10:40:23;17.66;87.97
69335;SHT31;56477;52.742;15.242;2023-07-31T10:42:56;17.88;87.35
69335;SHT31;56477;52.742;15.242;2023-07-31T10:45:33;17.99;87.43
69335;SHT31;56477;52.742;15.242;2023-07-31T10:48:01;17.95;87.63
69335;SHT31;56477;52.742;15.242;2023-07-31T10:50:28;18.28;86.61
69335;SHT31;56477;52.742;15.242;2023-07-31T10:52:55;18.47;86.28
69335;SHT31;56477;52.742;15.242;2023-07-31T10:58:07;18.88;84.05
69335;SHT31;56477;52.742;15.242;2023-07-31T11:00:33;18.49;84.17
69335;SHT31;56477;52.742;15.242;2023-07-31T11:03:01;18.29;85.64
69335;SHT31;56477;52.742;15.242;2023-07-31T11:05:55;18.19;85.66
69335;SHT31;56477;52.742;15.242;2023-07-31T11:08:36;18.15;85.74
69335;SHT31;56477;52.742;15.242;2023-07-31T11:11:08;17.84;86.48
69335;SHT31;56477;52.742;15.242;2023-07-31T11:13:51;17.75;87.40
69335;SHT31;56477;52.742;15.242;2023-07-31T11:16:24;17.85;87.24
69335;SHT31;56477;52.742;15.242;2023-07-31T11:18:51;17.94;87.43
69335;SHT31;56477;52.742;15.242;2023-07-31T11:21:20;18.21;86.84
69335;SHT31;56477;52.742;15.242;2023-07-31T11:23:47;18.71;85.88
69335;SHT31;56477;52.742;15.242;2023-07-31T11:26:14;18.81;84.36
69335;SHT31;56477;52.742;15.242;2023-07-31T11:28:40;18.87;85.12
69335;SHT31;56477;52.742;15.242;2023-07-31T11:31:09;19.04;84.91
69335;SHT31;56477;52.742;15.242;2023-07-31T11:33:35;18.97;83.79
69335;SHT31;56477;52.742;15.242;2023-07-31T11:36:01;19.21;84.39
69335;SHT31;56477;52.742;15.242;2023-07-31T11:38:28;19.32;83.34
69335;SHT31;56477;52.742;15.242;2023-07-31T11:41:03;19.03;83.22
69335;SHT31;56477;52.742;15.242;2023-07-31T11:43:30;19.26;82.63
69335;SHT31;56477;52.742;15.242;2023-07-31T11:45:58;19.18;82.85
69335;SHT31;56477;52.742;15.242;2023-07-31T11:48:27;19.52;81.33
69335;SHT31;56477;52.742;15.242;2023-07-31T11:50:57;20.01;80.64
69335;SHT31;56477;52.742;15.242;2023-07-31T11:53:30;19.39;80.94
69335;SHT31;56477;52.742;15.242;2023-07-31T11:56:01;19.08;82.72
69335;SHT31;56477;52.742;15.242;2023-07-31T11:58:31;18.59;86.22
69335;SHT31;56477;52.742;15.242;2023-07-31T12:00:59;18.13;88.74
69335;SHT31;56477;52.742;15.242;2023-07-31T12:03:25;18.21;88.28
69335;SHT31;56477;52.742;15.242;2023-07-31T12:05:55;18.21;88.75
69335;SHT31;56477;52.742;15.242;2023-07-31T12:08:23;18.39;88.43
69335;SHT31;56477;52.742;15.242;2023-07-31T12:10:53;18.74;87.46
69335;SHT31;56477;52.742;15.242;2023-07-31T12:13:26;19.24;84.07
69335;SHT31;56477;52.742;15.242;2023-07-31T12:15:56;19.53;83.03
69335;SHT31;56477;52.742;15.242;2023-07-31T12:18:25;20.10;81.74
69335;SHT31;56477;52.742;15.242;2023-07-31T12:20:58;20.31;81.31
69335;SHT31;56477;52.742;15.242;2023-07-31T12:23:29;20.24;80.85
69335;SHT31;56477;52.742;15.242;2023-07-31T12:26:23;20.21;81.34
69335;SHT31;56477;52.742;15.242;2023-07-31T12:28:50;19.84;80.80
69335;SHT31;56477;52.742;15.242;2023-07-31T12:31:18;19.77;81.44
69335;SHT31;56477;52.742;15.242;2023-07-31T12:33:45;20.09;79.51
69335;SHT31;56477;52.742;15.242;2023-07-31T12:36:25;20.37;79.04
69335;SHT31;56477;52.742;15.242;2023-07-31T12:38:52;20.10;78.43
69335;SHT31;56477;52.742;15.242;2023-07-31T12:41:18;20.28;79.39
69335;SHT31;56477;52.742;15.242;2023-07-31T12:43:45;20.41;78.34
69335;SHT31;56477;52.742;15.242;2023-07-31T12:46:11;20.20;78.32
69335;SHT31;56477;52.742;15.242;2023-07-31T12:48:38;20.01;78.95
69335;SHT31;56477;52.742;15.242;2023-07-31T12:51:05;19.98;79.26
69335;SHT31;56477;52.742;15.242;2023-07-31T12:53:32;19.66;80.50
69335;SHT31;56477;52.742;15.242;2023-07-31T12:55:59;19.53;81.02
69335;SHT31;56477;52.742;15.242;2023-07-31T12:58:25;19.56;81.50
69335;SHT31;56477;52.742;15.242;2023-07-31T13:00:51;19.41;81.50
69335;SHT31;56477;52.742;15.242;2023-07-31T13:03:17;19.36;81.80
69335;SHT31;56477;52.742;15.242;2023-07-31T13:05:43;19.38;82.26
69335;SHT31;56477;52.742;15.242;2023-07-31T13:08:09;19.31;82.66
69335;SHT31;56477;52.742;15.242;2023-07-31T13:10:35;19.42;82.18
69335;SHT31;56477;52.742;15.242;2023-07-31T13:13:01;19.49;82.39
69335;SHT31;56477;52.742;15.242;2023-07-31T13:15:27;19.62;81.78
69335;SHT31;56477;52.742;15.242;2023-07-31T13:17:53;19.90;80.57
69335;SHT31;56477;52.742;15.242;2023-07-31T13:20:19;20.17;80.15
69335;SHT31;56477;52.742;15.242;2023-07-31T13:22:44;20.45;79.34
69335;SHT31;56477;52.742;15.242;2023-07-31T13:25:10;20.51;79.09
69335;SHT31;56477;52.742;15.242;2023-07-31T13:27:36;20.17;78.32
69335;SHT31;56477;52.742;15.242;2023-07-31T13:30:02;20.14;77.46
69335;SHT31;56477;52.742;15.242;2023-07-31T13:32:29;20.14;77.49
69335;SHT31;56477;52.742;15.242;2023-07-31T13:34:56;20.65;76.64
69335;SHT31;56477;52.742;15.242;2023-07-31T13:37:21;20.65;77.40
69335;SHT31;56477;52.742;15.242;2023-07-31T13:39:47;20.56;77.54
69335;SHT31;56477;52.742;15.242;2023-07-31T13:42:13;20.53;76.71
69335;SHT31;56477;52.742;15.242;2023-07-31T13:44:40;20.61;76.78
69335;SHT31;56477;52.742;15.242;2023-07-31T13:47:06;20.64;76.58
69335;SHT31;56477;52.742;15.242;2023-07-31T13:49:33;20.41;78.40
69335;SHT31;56477;52.742;15.242;2023-07-31T13:52:00;20.24;79.75
69335;SHT31;56477;52.742;15.242;2023-07-31T13:54:26;20.03;80.71
69335;SHT31;56477;52.742;15.242;2023-07-31T13:56:52;19.84;81.63
69335;SHT31;56477;52.742;15.242;2023-07-31T13:59:19;19.59;83.55
69335;SHT31;56477;52.742;15.242;2023-07-31T14:01:45;19.42;84.58
69335;SHT31;56477;52.742;15.242;2023-07-31T14:04:11;19.31;85.13
69335;SHT31;56477;52.742;15.242;2023-07-31T14:06:37;19.21;85.71
69335;SHT31;56477;52.742;15.242;2023-07-31T14:09:04;19.24;84.83
69335;SHT31;56477;52.742;15.242;2023-07-31T14:11:33;19.24;83.00
69335;SHT31;56477;52.742;15.242;2023-07-31T14:13:59;19.31;84.07
69335;SHT31;56477;52.742;15.242;2023-07-31T14:16:27;19.42;83.43
69335;SHT31;56477;52.742;15.242;2023-07-31T14:18:54;19.46;83.15
69335;SHT31;56477;52.742;15.242;2023-07-31T14:21:20;19.46;82.43
69335;SHT31;56477;52.742;15.242;2023-07-31T14:23:46;19.55;81.75
69335;SHT31;56477;52.742;15.242;2023-07-31T14:26:12;19.59;81.76
69335;SHT31;56477;52.742;15.242;2023-07-31T14:28:38;19.66;79.86
69335;SHT31;56477;52.742;15.242;2023-07-31T14:31:04;19.79;80.21
69335;SHT31;56477;52.742;15.242;2023-07-31T14:33:30;19.77;79.26
69335;SHT31;56477;52.742;15.242;2023-07-31T14:35:56;19.89;79.70
69335;SHT31;56477;52.742;15.242;2023-07-31T14:38:22;19.93;77.77
69335;SHT31;56477;52.742;15.242;2023-07-31T14:40:48;20.07;76.63
69335;SHT31;56477;52.742;15.242;2023-07-31T14:43:14;20.25;76.51
69335;SHT31;56477;52.742;15.242;2023-07-31T14:45:40;20.34;75.63
69335;SHT31;56477;52.742;15.242;2023-07-31T14:48:06;20.41;75.60
69335;SHT31;56477;52.742;15.242;2023-07-31T14:50:32;20.52;75.61
69335;SHT31;56477;52.742;15.242;2023-07-31T14:52:58;20.55;75.11
69335;SHT31;56477;52.742;15.242;2023-07-31T14:55:25;20.72;74.43
69335;SHT31;56477;52.742;15.242;2023-07-31T14:57:51;20.73;74.92
69335;SHT31;56477;52.742;15.242;2023-07-31T15:00:16;20.64;75.62
69335;SHT31;56477;52.742;15.242;2023-07-31T15:02:43;20.49;75.84
69335;SHT31;56477;52.742;15.242;2023-07-31T15:05:09;20.55;76.29
69335;SHT31;56477;52.742;15.242;2023-07-31T15:07:35;20.56;76.32
69335;SHT31;56477;52.742;15.242;2023-07-31T15:10:01;20.71;75.95
69335;SHT31;56477;52.742;15.242;2023-07-31T15:12:28;20.73;76.05
69335;SHT31;56477;52.742;15.242;2023-07-31T15:14:54;20.90;74.29
69335;SHT31;56477;52.742;15.242;2023-07-31T15:17:20;20.80;74.33
69335;SHT31;56477;52.742;15.242;2023-07-31T15:19:46;20.76;74.89
69335;SHT31;56477;52.742;15.242;2023-07-31T15:22:12;20.72;75.33
69335;SHT31;56477;52.742;15.242;2023-07-31T15:24:38;20.67;75.04